sensor_id;sensor_type;location;lat;lon;timestamp;P1;durP1;ratioP1;P2;durP2;ratioP2
70369;SDS011;57790;51.356;-2.906;2022-11-13T00:02:35;13.33;;;5.23;;
70369;SDS011;57790;51.356;-2.906;2022-11-13T00:05:36;15.25;;;5.72;;
70369;SDS011;57790;51.356;-2.906;2022-11-13T00:08:37;14.57;;;5.43;;
70369;SDS011;57790;51.356;-2.906;2022-11-13T00:11:39;15.82;;;5.03;;
70369;SDS011;57790;51.356;-2.906;2022-11-13T00:14:39;14.43;;;5.20;;
70369;SDS011;57790;51.356;-2.906;2022-11-13T00:17:40;15.83;;;5.50;;
70369;SDS011;57790;51.356;-2.906;2022-11-13T00:20:40;13.77;;;5.00;;
70369;SDS011;57790;51.356;-2.906;2022-11-13T00:23:41;16.67;;;5.30;;
70369;SDS011;57790;51.356;-2.906;2022-11-13T00:26:41;17.00;;;5.40;;
70369;SDS011;57790;51.356;-2.906;2022-11-13T00:29:42;14.55;;;5.10;;
70369;SDS011;57790;51.356;-2.906;2022-11-13T00:32:43;14.97;;;5.63;;
70369;SDS011;57790;51.356;-2.906;2022-11-13T00:35:44;16.23;;;5.57;;
70369;SDS011;57790;51.356;-2.906;2022-11-13T00:38:45;13.30;;;5.10;;
70369;SDS011;57790;51.356;-2.906;2022-11-13T00:41:45;12.40;;;5.13;;
70369;SDS011;57790;51.356;-2.906;2022-11-13T00:44:46;14.17;;;5.37;;
70369;SDS011;57790;51.356;-2.906;2022-11-13T00:47:47;15.23;;;5.00;;
70369;SDS011;57790;51.356;-2.906;2022-11-13T00:50:47;18.00;;;6.23;;
70369;SDS011;57790;51.356;-2.906;2022-11-13T00:53:49;13.30;;;5.20;;
70369;SDS011;57790;51.356;-2.906;2022-11-13T00:56:49;14.33;;;5.47;;
70369;SDS011;57790;51.356;-2.906;2022-11-13T00:59:50;13.90;;;5.07;;
70369;SDS011;57790;51.356;-2.906;2022-11-13T01:02:51;12.10;;;5.40;;
70369;SDS011;57790;51.356;-2.906;2022-11-13T01:05:51;17.03;;;5.83;;
70369;SDS011;57790;51.356;-2.906;2022-11-13T01:08:53;14.68;;;5.75;;
70369;SDS011;57790;51.356;-2.906;2022-11-13T01:11:55;14.80;;;6.20;;
70369;SDS011;57790;51.356;-2.906;2022-11-13T01:14:56;14.55;;;5.30;;
70369;SDS011;57790;51.356;-2.906;2022-11-13T01:17:56;11.73;;;5.87;;
70369;SDS011;57790;51.356;-2.906;2022-11-13T01:21:02;21.13;;;5.75;;
70369;SDS011;57790;51.356;-2.906;2022-11-13T01:24:05;14.55;;;5.47;;
70369;SDS011;57790;51.356;-2.906;2022-11-13T01:27:05;13.83;;;5.80;;
70369;SDS011;57790;51.356;-2.906;2022-11-13T01:30:06;13.13;;;4.87;;
70369;SDS011;57790;51.356;-2.906;2022-11-13T01:33:08;18.02;;;6.30;;
70369;SDS011;57790;51.356;-2.906;2022-11-13T01:36:10;16.80;;;5.35;;
70369;SDS011;57790;51.356;-2.906;2022-11-13T01:39:14;10.57;;;4.70;;
70369;SDS011;57790;51.356;-2.906;2022-11-13T01:42:14;16.40;;;5.65;;
70369;SDS011;57790;51.356;-2.906;2022-11-13T01:48:57;17.67;;;6.07;;
70369;SDS011;57790;51.356;-2.906;2022-11-13T01:52:03;14.55;;;5.55;;
70369;SDS011;57790;51.356;-2.906;2022-11-13T01:55:09;15.17;;;5.50;;
70369;SDS011;57790;51.356;-2.906;2022-11-13T01:58:12;17.40;;;6.18;;
70369;SDS011;57790;51.356;-2.906;2022-11-13T02:01:13;16.02;;;5.78;;
70369;SDS011;57790;51.356;-2.906;2022-11-13T02:04:14;13.60;;;5.70;;
70369;SDS011;57790;51.356;-2.906;2022-11-13T02:07:15;16.77;;;6.40;;
70369;SDS011;57790;51.356;-2.906;2022-11-13T02:10:18;13.50;;;5.30;;
70369;SDS011;57790;51.356;-2.906;2022-11-13T02:13:19;16.53;;;5.40;;
70369;SDS011;57790;51.356;-2.906;2022-11-13T02:16:20;12.90;;;5.78;;
70369;SDS011;57790;51.356;-2.906;2022-11-13T02:19:25;14.48;;;5.97;;
70369;SDS011;57790;51.356;-2.906;2022-11-13T02:22:34;11.60;;;4.47;;
70369;SDS011;57790;51.356;-2.906;2022-11-13T02:25:42;12.75;;;5.85;;
70369;SDS011;57790;51.356;-2.906;2022-11-13T02:28:47;15.88;;;6.72;;
70369;SDS011;57790;51.356;-2.906;2022-11-13T02:31:48;15.83;;;5.17;;
70369;SDS011;57790;51.356;-2.906;2022-11-13T02:34:48;12.65;;;5.65;;
70369;SDS011;57790;51.356;-2.906;2022-11-13T02:37:49;13.87;;;5.60;;
70369;SDS011;57790;51.356;-2.906;2022-11-13T02:40:50;15.55;;;6.97;;
70369;SDS011;57790;51.356;-2.906;2022-11-13T02:43:50;15.70;;;5.37;;
70369;SDS011;57790;51.356;-2.906;2022-11-13T02:46:51;12.27;;;4.90;;
70369;SDS011;57790;51.356;-2.906;2022-11-13T02:49:51;13.15;;;5.03;;
70369;SDS011;57790;51.356;-2.906;2022-11-13T02:52:52;14.30;;;5.13;;
70369;SDS011;57790;51.356;-2.906;2022-11-13T02:55:52;13.43;;;6.20;;
70369;SDS011;57790;51.356;-2.906;2022-11-13T02:58:53;15.25;;;5.75;;
70369;SDS011;57790;51.356;-2.906;2022-11-13T03:01:53;13.20;;;5.77;;
70369;SDS011;57790;51.356;-2.906;2022-11-13T03:04:54;15.27;;;5.80;;
70369;SDS011;57790;51.356;-2.906;2022-11-13T03:07:55;14.05;;;5.57;;
70369;SDS011;57790;51.356;-2.906;2022-11-13T03:10:55;14.03;;;6.07;;
70369;SDS011;57790;51.356;-2.906;2022-11-13T03:13:56;13.27;;;5.63;;
70369;SDS011;57790;51.356;-2.906;2022-11-13T03:16:57;15.90;;;5.47;;
70369;SDS011;57790;51.356;-2.906;2022-11-13T03:19:57;13.30;;;6.00;;
70369;SDS011;57790;51.356;-2.906;2022-11-13T03:22:58;12.40;;;4.90;;
70369;SDS011;57790;51.356;-2.906;2022-11-13T03:26:07;13.38;;;4.53;;
70369;SDS011;57790;51.356;-2.906;2022-11-13T03:29:10;12.90;;;5.10;;
70369;SDS011;57790;51.356;-2.906;2022-11-13T03:32:11;13.23;;;5.40;;
70369;SDS011;57790;51.356;-2.906;2022-11-13T03:35:11;14.93;;;5.43;;
70369;SDS011;57790;51.356;-2.906;2022-11-13T03:38:12;13.02;;;4.57;;
70369;SDS011;57790;51.356;-2.906;2022-11-13T03:41:12;12.43;;;4.57;;
70369;SDS011;57790;51.356;-2.906;2022-11-13T03:44:14;14.02;;;6.82;;
70369;SDS011;57790;51.356;-2.906;2022-11-13T03:47:15;12.80;;;6.47;;
70369;SDS011;57790;51.356;-2.906;2022-11-13T03:50:15;14.27;;;6.27;;
70369;SDS011;57790;51.356;-2.906;2022-11-13T03:53:16;16.00;;;7.20;;
70369;SDS011;57790;51.356;-2.906;2022-11-13T03:56:17;15.60;;;6.23;;
70369;SDS011;57790;51.356;-2.906;2022-11-13T03:59:17;13.55;;;6.10;;
70369;SDS011;57790;51.356;-2.906;2022-11-13T04:02:18;16.13;;;7.53;;
70369;SDS011;57790;51.356;-2.906;2022-11-13T04:05:18;18.43;;;8.30;;
70369;SDS011;57790;51.356;-2.906;2022-11-13T04:08:19;16.53;;;7.90;;
70369;SDS011;57790;51.356;-2.906;2022-11-13T04:11:20;15.53;;;7.07;;
70369;SDS011;57790;51.356;-2.906;2022-11-13T04:14:20;15.75;;;6.82;;
70369;SDS011;57790;51.356;-2.906;2022-11-13T04:17:21;14.37;;;6.70;;
70369;SDS011;57790;51.356;-2.906;2022-11-13T04:20:21;14.50;;;7.00;;
70369;SDS011;57790;51.356;-2.906;2022-11-13T04:23:22;14.60;;;7.30;;
70369;SDS011;57790;51.356;-2.906;2022-11-13T04:26:23;14.17;;;6.57;;
70369;SDS011;57790;51.356;-2.906;2022-11-13T04:29:23;14.10;;;6.95;;
70369;SDS011;57790;51.356;-2.906;2022-11-13T04:32:24;17.63;;;7.27;;
70369;SDS011;57790;51.356;-2.906;2022-11-13T04:35:25;12.60;;;5.88;;
70369;SDS011;57790;51.356;-2.906;2022-11-13T04:38:25;15.70;;;6.97;;
70369;SDS011;57790;51.356;-2.906;2022-11-13T04:41:26;14.50;;;7.67;;
70369;SDS011;57790;51.356;-2.906;2022-11-13T04:44:47;15.57;;;7.28;;
70369;SDS011;57790;51.356;-2.906;2022-11-13T04:47:47;13.90;;;7.25;;
70369;SDS011;57790;51.356;-2.906;2022-11-13T04:50:48;12.77;;;5.37;;
70369;SDS011;57790;51.356;-2.906;2022-11-13T04:53:49;15.47;;;7.90;;
70369;SDS011;57790;51.356;-2.906;2022-11-13T04:56:49;17.50;;;7.38;;
70369;SDS011;57790;51.356;-2.906;2022-11-13T04:59:50;26.63;;;7.13;;
70369;SDS011;57790;51.356;-2.906;2022-11-13T05:02:50;14.07;;;7.00;;
70369;SDS011;57790;51.356;-2.906;2022-11-13T05:05:51;13.77;;;6.70;;
70369;SDS011;57790;51.356;-2.906;2022-11-13T05:08:52;13.57;;;6.30;;
70369;SDS011;57790;51.356;-2.906;2022-11-13T05:11:52;16.27;;;7.47;;
70369;SDS011;57790;51.356;-2.906;2022-11-13T05:14:53;15.50;;;6.83;;
70369;SDS011;57790;51.356;-2.906;2022-11-13T05:17:53;15.13;;;7.60;;
70369;SDS011;57790;51.356;-2.906;2022-11-13T05:20:55;13.30;;;6.18;;
70369;SDS011;57790;51.356;-2.906;2022-11-13T05:23:56;14.80;;;7.05;;
70369;SDS011;57790;51.356;-2.906;2022-11-13T05:26:57;14.83;;;6.90;;
70369;SDS011;57790;51.356;-2.906;2022-11-13T05:29:57;14.85;;;6.68;;
70369;SDS011;57790;51.356;-2.906;2022-11-13T05:32:58;12.77;;;6.23;;
70369;SDS011;57790;51.356;-2.906;2022-11-13T05:36:02;15.50;;;6.55;;
70369;SDS011;57790;51.356;-2.906;2022-11-13T05:39:05;16.00;;;6.67;;
70369;SDS011;57790;51.356;-2.906;2022-11-13T05:42:05;13.45;;;6.53;;
70369;SDS011;57790;51.356;-2.906;2022-11-13T05:45:06;14.90;;;6.70;;
70369;SDS011;57790;51.356;-2.906;2022-11-13T05:48:07;13.55;;;6.25;;
70369;SDS011;57790;51.356;-2.906;2022-11-13T05:51:09;14.67;;;5.90;;
70369;SDS011;57790;51.356;-2.906;2022-11-13T05:54:12;13.55;;;5.78;;
70369;SDS011;57790;51.356;-2.906;2022-11-13T05:57:13;13.05;;;5.80;;
70369;SDS011;57790;51.356;-2.906;2022-11-13T06:00:14;12.10;;;5.57;;
70369;SDS011;57790;51.356;-2.906;2022-11-13T06:03:15;13.40;;;6.47;;
70369;SDS011;57790;51.356;-2.906;2022-11-13T06:06:17;14.43;;;5.80;;
70369;SDS011;57790;51.356;-2.906;2022-11-13T06:09:18;11.13;;;5.07;;
70369;SDS011;57790;51.356;-2.906;2022-11-13T06:12:19;14.27;;;6.20;;
70369;SDS011;57790;51.356;-2.906;2022-11-13T06:15:20;15.40;;;5.97;;
70369;SDS011;57790;51.356;-2.906;2022-11-13T06:18:21;12.27;;;5.67;;
70369;SDS011;57790;51.356;-2.906;2022-11-13T06:21:23;11.43;;;6.00;;
70369;SDS011;57790;51.356;-2.906;2022-11-13T06:24:25;13.27;;;5.72;;
70369;SDS011;57790;51.356;-2.906;2022-11-13T06:27:26;11.70;;;5.57;;
70369;SDS011;57790;51.356;-2.906;2022-11-13T06:30:27;14.77;;;5.85;;
70369;SDS011;57790;51.356;-2.906;2022-11-13T06:33:27;11.30;;;5.33;;
70369;SDS011;57790;51.356;-2.906;2022-11-13T06:36:29;14.80;;;5.75;;
70369;SDS011;57790;51.356;-2.906;2022-11-13T06:39:32;12.97;;;5.53;;
70369;SDS011;57790;51.356;-2.906;2022-11-13T06:42:32;11.75;;;5.38;;
70369;SDS011;57790;51.356;-2.906;2022-11-13T06:45:33;11.37;;;5.10;;
70369;SDS011;57790;51.356;-2.906;2022-11-13T06:48:34;13.35;;;5.60;;
70369;SDS011;57790;51.356;-2.906;2022-11-13T06:51:35;10.77;;;4.90;;
70369;SDS011;57790;51.356;-2.906;2022-11-13T06:54:36;14.23;;;6.15;;
70369;SDS011;57790;51.356;-2.906;2022-11-13T06:57:36;12.60;;;5.00;;
70369;SDS011;57790;51.356;-2.906;2022-11-13T07:00:37;11.73;;;5.00;;
70369;SDS011;57790;51.356;-2.906;2022-11-13T07:03:38;11.23;;;4.32;;
70369;SDS011;57790;51.356;-2.906;2022-11-13T07:06:40;11.15;;;5.53;;
70369;SDS011;57790;51.356;-2.906;2022-11-13T07:09:40;13.23;;;5.33;;
70369;SDS011;57790;51.356;-2.906;2022-11-13T07:12:41;12.00;;;4.70;;
70369;SDS011;57790;51.356;-2.906;2022-11-13T07:15:41;12.90;;;5.63;;
70369;SDS011;57790;51.356;-2.906;2022-11-13T07:18:42;12.97;;;5.40;;
70369;SDS011;57790;51.356;-2.906;2022-11-13T07:21:43;12.68;;;5.75;;
70369;SDS011;57790;51.356;-2.906;2022-11-13T07:24:44;11.77;;;5.05;;
70369;SDS011;57790;51.356;-2.906;2022-11-13T07:27:44;13.63;;;5.03;;
70369;SDS011;57790;51.356;-2.906;2022-11-13T07:30:45;11.80;;;5.33;;
70369;SDS011;57790;51.356;-2.906;2022-11-13T07:33:46;11.40;;;4.78;;
70369;SDS011;57790;51.356;-2.906;2022-11-13T07:36:49;11.38;;;4.80;;
70369;SDS011;57790;51.356;-2.906;2022-11-13T07:39:49;12.27;;;4.90;;
70369;SDS011;57790;51.356;-2.906;2022-11-13T07:42:58;13.03;;;4.80;;
70369;SDS011;57790;51.356;-2.906;2022-11-13T07:46:00;12.52;;;5.30;;
70369;SDS011;57790;51.356;-2.906;2022-11-13T07:49:01;12.25;;;5.63;;
70369;SDS011;57790;51.356;-2.906;2022-11-13T07:52:01;14.27;;;6.10;;
70369;SDS011;57790;51.356;-2.906;2022-11-13T07:55:03;13.55;;;6.00;;
70369;SDS011;57790;51.356;-2.906;2022-11-13T07:58:05;14.05;;;6.35;;
70369;SDS011;57790;51.356;-2.906;2022-11-13T08:01:05;14.50;;;6.40;;
70369;SDS011;57790;51.356;-2.906;2022-11-13T08:04:06;15.10;;;6.43;;
70369;SDS011;57790;51.356;-2.906;2022-11-13T08:07:07;13.10;;;5.80;;
70369;SDS011;57790;51.356;-2.906;2022-11-13T08:10:10;12.30;;;5.68;;
70369;SDS011;57790;51.356;-2.906;2022-11-13T08:13:11;12.10;;;5.90;;
70369;SDS011;57790;51.356;-2.906;2022-11-13T08:16:11;13.85;;;6.47;;
70369;SDS011;57790;51.356;-2.906;2022-11-13T08:19:12;13.63;;;6.20;;
70369;SDS011;57790;51.356;-2.906;2022-11-13T08:22:13;12.60;;;6.28;;
70369;SDS011;57790;51.356;-2.906;2022-11-13T08:25:13;11.57;;;5.50;;
70369;SDS011;57790;51.356;-2.906;2022-11-13T08:28:15;12.80;;;6.15;;
70369;SDS011;57790;51.356;-2.906;2022-11-13T08:31:16;14.80;;;6.77;;
70369;SDS011;57790;51.356;-2.906;2022-11-13T08:34:16;13.13;;;6.55;;
70369;SDS011;57790;51.356;-2.906;2022-11-13T08:37:17;14.00;;;6.93;;
70369;SDS011;57790;51.356;-2.906;2022-11-13T08:40:17;13.40;;;6.93;;
70369;SDS011;57790;51.356;-2.906;2022-11-13T08:43:18;14.57;;;6.65;;
70369;SDS011;57790;51.356;-2.906;2022-11-13T08:46:19;16.27;;;6.80;;
70369;SDS011;57790;51.356;-2.906;2022-11-13T08:49:19;13.25;;;6.80;;
70369;SDS011;57790;51.356;-2.906;2022-11-13T08:52:21;14.75;;;6.95;;
70369;SDS011;57790;51.356;-2.906;2022-11-13T08:55:22;15.00;;;7.33;;
70369;SDS011;57790;51.356;-2.906;2022-11-13T08:58:23;15.32;;;7.65;;
70369;SDS011;57790;51.356;-2.906;2022-11-13T09:01:24;14.03;;;6.90;;
70369;SDS011;57790;51.356;-2.906;2022-11-13T09:04:24;14.82;;;7.43;;
70369;SDS011;57790;51.356;-2.906;2022-11-13T09:07:25;15.32;;;7.22;;
70369;SDS011;57790;51.356;-2.906;2022-11-13T09:10:27;18.13;;;7.50;;
70369;SDS011;57790;51.356;-2.906;2022-11-13T09:13:27;13.82;;;7.30;;
70369;SDS011;57790;51.356;-2.906;2022-11-13T09:16:28;15.43;;;8.03;;
70369;SDS011;57790;51.356;-2.906;2022-11-13T09:19:28;13.75;;;6.80;;
70369;SDS011;57790;51.356;-2.906;2022-11-13T09:22:29;14.07;;;6.67;;
70369;SDS011;57790;51.356;-2.906;2022-11-13T09:25:30;14.30;;;7.27;;
70369;SDS011;57790;51.356;-2.906;2022-11-13T09:28:34;15.52;;;6.97;;
70369;SDS011;57790;51.356;-2.906;2022-11-13T09:31:39;8.55;;;3.03;;
70369;SDS011;57790;51.356;-2.906;2022-11-13T09:34:47;10.85;;;4.15;;
70369;SDS011;57790;51.356;-2.906;2022-11-13T09:37:50;10.73;;;4.20;;
70369;SDS011;57790;51.356;-2.906;2022-11-13T09:40:53;9.85;;;4.22;;
70369;SDS011;57790;51.356;-2.906;2022-11-13T09:43:59;13.85;;;6.25;;
70369;SDS011;57790;51.356;-2.906;2022-11-13T09:47:20;9.60;;;4.57;;
70369;SDS011;57790;51.356;-2.906;2022-11-13T09:50:26;14.82;;;5.40;;
70369;SDS011;57790;51.356;-2.906;2022-11-13T09:53:32;11.97;;;4.83;;
70369;SDS011;57790;51.356;-2.906;2022-11-13T09:56:41;13.63;;;5.55;;
70369;SDS011;57790;51.356;-2.906;2022-11-13T09:59:57;14.00;;;5.88;;
70369;SDS011;57790;51.356;-2.906;2022-11-13T10:06:48;11.82;;;5.32;;
70369;SDS011;57790;51.356;-2.906;2022-11-13T10:10:10;12.20;;;5.47;;
70369;SDS011;57790;51.356;-2.906;2022-11-13T10:13:32;12.82;;;4.95;;
70369;SDS011;57790;51.356;-2.906;2022-11-13T10:16:49;12.48;;;5.40;;
70369;SDS011;57790;51.356;-2.906;2022-11-13T10:20:03;10.00;;;4.97;;
70369;SDS011;57790;51.356;-2.906;2022-11-13T10:23:14;13.52;;;6.15;;
70369;SDS011;57790;51.356;-2.906;2022-11-13T10:26:19;11.80;;;5.63;;
70369;SDS011;57790;51.356;-2.906;2022-11-13T10:29:22;11.05;;;4.88;;
70369;SDS011;57790;51.356;-2.906;2022-11-13T10:32:24;13.27;;;5.22;;
70369;SDS011;57790;51.356;-2.906;2022-11-13T10:35:30;11.13;;;4.75;;
70369;SDS011;57790;51.356;-2.906;2022-11-13T10:38:49;10.83;;;5.10;;
70369;SDS011;57790;51.356;-2.906;2022-11-13T10:41:57;12.52;;;5.55;;
70369;SDS011;57790;51.356;-2.906;2022-11-13T10:44:59;11.57;;;5.30;;
70369;SDS011;57790;51.356;-2.906;2022-11-13T10:48:00;10.15;;;4.50;;
70369;SDS011;57790;51.356;-2.906;2022-11-13T10:51:03;12.00;;;5.00;;
70369;SDS011;57790;51.356;-2.906;2022-11-13T10:57:30;10.30;;;4.57;;
70369;SDS011;57790;51.356;-2.906;2022-11-13T11:00:34;8.48;;;3.97;;
70369;SDS011;57790;51.356;-2.906;2022-11-13T11:03:46;11.07;;;5.32;;
70369;SDS011;57790;51.356;-2.906;2022-11-13T11:06:48;11.10;;;4.93;;
70369;SDS011;57790;51.356;-2.906;2022-11-13T11:09:50;12.67;;;4.40;;
70369;SDS011;57790;51.356;-2.906;2022-11-13T11:12:55;10.25;;;4.30;;
70369;SDS011;57790;51.356;-2.906;2022-11-13T11:16:00;12.00;;;4.93;;
70369;SDS011;57790;51.356;-2.906;2022-11-13T11:19:04;9.57;;;4.60;;
70369;SDS011;57790;51.356;-2.906;2022-11-13T11:22:18;11.43;;;4.57;;
70369;SDS011;57790;51.356;-2.906;2022-11-13T11:25:30;12.97;;;5.40;;
70369;SDS011;57790;51.356;-2.906;2022-11-13T11:28:40;26.30;;;10.45;;
70369;SDS011;57790;51.356;-2.906;2022-11-13T11:31:52;10.80;;;5.05;;
70369;SDS011;57790;51.356;-2.906;2022-11-13T11:35:00;12.25;;;4.22;;
70369;SDS011;57790;51.356;-2.906;2022-11-13T11:41:55;9.97;;;4.27;;
70369;SDS011;57790;51.356;-2.906;2022-11-13T11:45:15;10.18;;;4.07;;
70369;SDS011;57790;51.356;-2.906;2022-11-13T11:48:27;12.23;;;5.20;;
70369;SDS011;57790;51.356;-2.906;2022-11-13T11:51:31;10.23;;;4.40;;
70369;SDS011;57790;51.356;-2.906;2022-11-13T11:54:40;9.05;;;3.65;;
70369;SDS011;57790;51.356;-2.906;2022-11-13T12:04:49;15.10;;;3.60;;
70369;SDS011;57790;51.356;-2.906;2022-11-13T12:08:20;10.35;;;3.70;;
70369;SDS011;57790;51.356;-2.906;2022-11-13T12:11:42;8.10;;;3.15;;
70369;SDS011;57790;51.356;-2.906;2022-11-13T12:15:07;9.20;;;2.90;;
70369;SDS011;57790;51.356;-2.906;2022-11-13T12:18:34;7.17;;;2.90;;
70369;SDS011;57790;51.356;-2.906;2022-11-13T12:22:03;9.65;;;3.08;;
70369;SDS011;57790;51.356;-2.906;2022-11-13T12:25:35;10.98;;;3.28;;
70369;SDS011;57790;51.356;-2.906;2022-11-13T12:29:14;8.75;;;3.67;;
70369;SDS011;57790;51.356;-2.906;2022-11-13T12:32:45;9.18;;;2.92;;
70369;SDS011;57790;51.356;-2.906;2022-11-13T12:36:11;10.83;;;3.63;;
70369;SDS011;57790;51.356;-2.906;2022-11-13T12:42:48;8.23;;;2.70;;
70369;SDS011;57790;51.356;-2.906;2022-11-13T12:46:12;10.65;;;3.10;;
70369;SDS011;57790;51.356;-2.906;2022-11-13T12:49:34;8.07;;;2.80;;
70369;SDS011;57790;51.356;-2.906;2022-11-13T12:52:41;9.83;;;2.53;;
70369;SDS011;57790;51.356;-2.906;2022-11-13T12:55:53;9.90;;;2.70;;
70369;SDS011;57790;51.356;-2.906;2022-11-13T12:59:04;8.55;;;2.75;;
70369;SDS011;57790;51.356;-2.906;2022-11-13T13:02:44;9.68;;;2.90;;
70369;SDS011;57790;51.356;-2.906;2022-11-13T13:06:20;9.45;;;2.63;;
70369;SDS011;57790;51.356;-2.906;2022-11-13T13:09:51;9.37;;;3.00;;
70369;SDS011;57790;51.356;-2.906;2022-11-13T13:13:39;12.38;;;3.55;;
70369;SDS011;57790;51.356;-2.906;2022-11-13T13:16:48;8.63;;;3.00;;
70369;SDS011;57790;51.356;-2.906;2022-11-13T13:23:33;10.68;;;2.95;;
70369;SDS011;57790;51.356;-2.906;2022-11-13T13:26:52;14.03;;;3.10;;
70369;SDS011;57790;51.356;-2.906;2022-11-13T13:30:10;8.02;;;2.83;;
70369;SDS011;57790;51.356;-2.906;2022-11-13T13:33:28;11.13;;;3.28;;
70369;SDS011;57790;51.356;-2.906;2022-11-13T13:36:53;9.60;;;2.67;;
70369;SDS011;57790;51.356;-2.906;2022-11-13T13:43:53;9.13;;;2.80;;
70369;SDS011;57790;51.356;-2.906;2022-11-13T13:47:29;9.52;;;3.38;;
70369;SDS011;57790;51.356;-2.906;2022-11-13T13:50:44;8.32;;;3.05;;
70369;SDS011;57790;51.356;-2.906;2022-11-13T13:53:48;8.23;;;3.35;;
70369;SDS011;57790;51.356;-2.906;2022-11-13T13:56:53;11.27;;;3.28;;
70369;SDS011;57790;51.356;-2.906;2022-11-13T14:00:08;9.07;;;3.10;;
70369;SDS011;57790;51.356;-2.906;2022-11-13T14:03:16;8.68;;;3.03;;
70369;SDS011;57790;51.356;-2.906;2022-11-13T14:06:27;11.35;;;3.28;;
70369;SDS011;57790;51.356;-2.906;2022-11-13T14:09:34;9.65;;;3.20;;
70369;SDS011;57790;51.356;-2.906;2022-11-13T14:12:39;8.57;;;2.92;;
70369;SDS011;57790;51.356;-2.906;2022-11-13T14:15:42;8.87;;;3.03;;
70369;SDS011;57790;51.356;-2.906;2022-11-13T14:18:43;10.38;;;3.00;;
70369;SDS011;57790;51.356;-2.906;2022-11-13T14:21:48;8.13;;;3.40;;
70369;SDS011;57790;51.356;-2.906;2022-11-13T14:24:54;10.13;;;3.17;;
70369;SDS011;57790;51.356;-2.906;2022-11-13T14:28:01;11.30;;;4.00;;
70369;SDS011;57790;51.356;-2.906;2022-11-13T14:31:32;10.40;;;3.45;;
70369;SDS011;57790;51.356;-2.906;2022-11-13T14:34:34;9.30;;;3.03;;
70369;SDS011;57790;51.356;-2.906;2022-11-13T14:37:37;10.07;;;3.40;;
70369;SDS011;57790;51.356;-2.906;2022-11-13T14:40:39;9.25;;;3.05;;
70369;SDS011;57790;51.356;-2.906;2022-11-13T14:43:47;10.53;;;3.40;;
70369;SDS011;57790;51.356;-2.906;2022-11-13T14:46:56;10.00;;;3.00;;
70369;SDS011;57790;51.356;-2.906;2022-11-13T14:50:07;9.60;;;3.30;;
70369;SDS011;57790;51.356;-2.906;2022-11-13T14:53:30;8.50;;;3.63;;
70369;SDS011;57790;51.356;-2.906;2022-11-13T14:56:35;9.95;;;3.42;;
70369;SDS011;57790;51.356;-2.906;2022-11-13T14:59:38;9.97;;;3.07;;
70369;SDS011;57790;51.356;-2.906;2022-11-13T15:02:41;9.18;;;3.10;;
70369;SDS011;57790;51.356;-2.906;2022-11-13T15:05:41;10.18;;;3.10;;
70369;SDS011;57790;51.356;-2.906;2022-11-13T15:08:43;12.23;;;3.43;;
70369;SDS011;57790;51.356;-2.906;2022-11-13T15:11:45;10.50;;;3.78;;
70369;SDS011;57790;51.356;-2.906;2022-11-13T15:14:45;11.43;;;3.70;;
70369;SDS011;57790;51.356;-2.906;2022-11-13T15:17:46;13.20;;;4.43;;
70369;SDS011;57790;51.356;-2.906;2022-11-13T15:20:49;13.80;;;5.50;;
70369;SDS011;57790;51.356;-2.906;2022-11-13T15:23:50;10.55;;;3.88;;
70369;SDS011;57790;51.356;-2.906;2022-11-13T15:26:50;11.40;;;3.70;;
70369;SDS011;57790;51.356;-2.906;2022-11-13T15:29:51;13.30;;;5.00;;
70369;SDS011;57790;51.356;-2.906;2022-11-13T15:32:51;10.97;;;3.60;;
70369;SDS011;57790;51.356;-2.906;2022-11-13T15:35:53;13.75;;;4.63;;
70369;SDS011;57790;51.356;-2.906;2022-11-13T15:38:54;11.27;;;4.37;;
70369;SDS011;57790;51.356;-2.906;2022-11-13T15:41:54;14.47;;;5.90;;
70369;SDS011;57790;51.356;-2.906;2022-11-13T15:44:56;15.70;;;5.47;;
70369;SDS011;57790;51.356;-2.906;2022-11-13T15:47:56;12.00;;;4.40;;
70369;SDS011;57790;51.356;-2.906;2022-11-13T15:50:57;14.27;;;4.70;;
70369;SDS011;57790;51.356;-2.906;2022-11-13T15:53:59;11.97;;;4.50;;
70369;SDS011;57790;51.356;-2.906;2022-11-13T15:57:02;10.85;;;4.00;;
70369;SDS011;57790;51.356;-2.906;2022-11-13T16:00:02;10.82;;;4.40;;
70369;SDS011;57790;51.356;-2.906;2022-11-13T16:03:05;13.83;;;4.27;;
70369;SDS011;57790;51.356;-2.906;2022-11-13T16:06:11;11.10;;;4.07;;
70369;SDS011;57790;51.356;-2.906;2022-11-13T16:09:14;14.68;;;5.50;;
70369;SDS011;57790;51.356;-2.906;2022-11-13T16:12:15;11.63;;;4.05;;
70369;SDS011;57790;51.356;-2.906;2022-11-13T16:15:16;10.47;;;4.00;;
70369;SDS011;57790;51.356;-2.906;2022-11-13T16:18:21;11.75;;;4.20;;
70369;SDS011;57790;51.356;-2.906;2022-11-13T16:21:24;11.93;;;4.10;;
70369;SDS011;57790;51.356;-2.906;2022-11-13T16:24:24;10.77;;;3.97;;
70369;SDS011;57790;51.356;-2.906;2022-11-13T16:27:26;10.20;;;4.10;;
70369;SDS011;57790;51.356;-2.906;2022-11-13T16:30:28;8.60;;;3.03;;
70369;SDS011;57790;51.356;-2.906;2022-11-13T16:33:30;10.13;;;3.70;;
70369;SDS011;57790;51.356;-2.906;2022-11-13T16:36:31;11.88;;;3.55;;
70369;SDS011;57790;51.356;-2.906;2022-11-13T16:39:31;14.00;;;3.73;;
70369;SDS011;57790;51.356;-2.906;2022-11-13T16:42:32;10.18;;;3.13;;
70369;SDS011;57790;51.356;-2.906;2022-11-13T16:45:32;10.97;;;3.60;;
70369;SDS011;57790;51.356;-2.906;2022-11-13T16:48:33;15.00;;;4.27;;
70369;SDS011;57790;51.356;-2.906;2022-11-13T16:51:33;11.30;;;3.50;;
70369;SDS011;57790;51.356;-2.906;2022-11-13T16:54:34;11.67;;;4.23;;
70369;SDS011;57790;51.356;-2.906;2022-11-13T16:57:35;9.20;;;3.43;;
70369;SDS011;57790;51.356;-2.906;2022-11-13T17:00:35;12.25;;;3.40;;
70369;SDS011;57790;51.356;-2.906;2022-11-13T17:03:36;12.70;;;3.33;;
70369;SDS011;57790;51.356;-2.906;2022-11-13T17:06:37;15.15;;;3.70;;
70369;SDS011;57790;51.356;-2.906;2022-11-13T17:09:38;11.23;;;3.97;;
70369;SDS011;57790;51.356;-2.906;2022-11-13T17:12:40;12.00;;;5.18;;
70369;SDS011;57790;51.356;-2.906;2022-11-13T17:15:41;12.90;;;5.35;;
70369;SDS011;57790;51.356;-2.906;2022-11-13T17:18:42;11.13;;;4.80;;
70369;SDS011;57790;51.356;-2.906;2022-11-13T17:21:42;14.07;;;5.33;;
70369;SDS011;57790;51.356;-2.906;2022-11-13T17:24:43;14.18;;;4.93;;
70369;SDS011;57790;51.356;-2.906;2022-11-13T17:27:43;12.73;;;4.83;;
70369;SDS011;57790;51.356;-2.906;2022-11-13T17:30:44;11.13;;;4.78;;
70369;SDS011;57790;51.356;-2.906;2022-11-13T17:33:45;14.10;;;5.30;;
70369;SDS011;57790;51.356;-2.906;2022-11-13T17:36:46;10.85;;;4.88;;
70369;SDS011;57790;51.356;-2.906;2022-11-13T17:39:46;12.43;;;4.60;;
70369;SDS011;57790;51.356;-2.906;2022-11-13T17:42:47;12.80;;;4.33;;
70369;SDS011;57790;51.356;-2.906;2022-11-13T17:45:49;10.68;;;4.90;;
70369;SDS011;57790;51.356;-2.906;2022-11-13T17:48:50;11.13;;;4.80;;
70369;SDS011;57790;51.356;-2.906;2022-11-13T17:51:50;11.83;;;4.83;;
70369;SDS011;57790;51.356;-2.906;2022-11-13T17:54:51;13.25;;;5.10;;
70369;SDS011;57790;51.356;-2.906;2022-11-13T17:57:52;12.97;;;5.83;;
70369;SDS011;57790;51.356;-2.906;2022-11-13T18:00:52;13.90;;;6.20;;
70369;SDS011;57790;51.356;-2.906;2022-11-13T18:04:01;11.67;;;5.37;;
70369;SDS011;57790;51.356;-2.906;2022-11-13T18:07:02;11.82;;;5.40;;
70369;SDS011;57790;51.356;-2.906;2022-11-13T18:10:02;14.20;;;6.30;;
70369;SDS011;57790;51.356;-2.906;2022-11-13T18:13:03;14.68;;;7.00;;
70369;SDS011;57790;51.356;-2.906;2022-11-13T18:16:05;15.98;;;7.03;;
70369;SDS011;57790;51.356;-2.906;2022-11-13T18:19:08;20.02;;;8.35;;
70369;SDS011;57790;51.356;-2.906;2022-11-13T18:22:09;24.27;;;13.57;;
70369;SDS011;57790;51.356;-2.906;2022-11-13T18:25:10;15.55;;;6.65;;
70369;SDS011;57790;51.356;-2.906;2022-11-13T18:28:10;16.77;;;6.23;;
70369;SDS011;57790;51.356;-2.906;2022-11-13T18:31:12;11.90;;;4.90;;
70369;SDS011;57790;51.356;-2.906;2022-11-13T18:34:15;11.25;;;5.30;;